Time;durP1;ratioP1;P1;durP2;ratioP2;P2;SDS_P1;SDS_P2;PMS_P1;PMS_P2;Temp;Humidity;BMP_temperature;BMP_pressure;BME280_temperature;BME280_humidity;BME280_pressure;Samples;Min_cycle;Max_cycle;Signal;HPM_P1;HPM_P2
2021/12/28 00:01:31;;;;;;;103.47;45.47;;;;;;;-6.40;100.00;99803.31;5030747;28;20470;-71
2021/12/28 00:03:59;;;;;;;103.37;47.97;;;;;;;-6.43;100.00;99803.25;5023287;28;20469;-72
2021/12/28 00:06:26;;;;;;;121.23;50.60;;;;;;;-6.42;100.00;99807.50;5028475;28;20454;-71
2021/12/28 00:08:52;;;;;;;112.47;50.37;;;;;;;-6.44;100.00;99796.44;5024958;28;20454;-71
2021/12/28 00:11:18;;;;;;;105.77;48.00;;;;;;;-6.47;100.00;99799.75;5032114;28;20580;-72
2021/12/28 00:13:45;;;;;;;114.77;48.17;;;;;;;-6.46;100.00;99806.53;5022182;28;20462;-71
2021/12/28 00:16:30;;;;;;;120.10;50.37;;;;;;;-6.48;100.00;99803.09;5029190;28;20450;-72
2021/12/28 00:18:59;;;;;;;115.40;49.83;;;;;;;-6.49;100.00;99804.78;5023960;28;20489;-72
2021/12/28 00:21:27;;;;;;;116.97;48.37;;;;;;;-6.52;100.00;99808.91;5023991;28;20505;-71
2021/12/28 00:23:53;;;;;;;113.47;49.50;;;;;;;-6.54;100.00;99805.47;5024467;28;20815;-71
2021/12/28 00:26:22;;;;;;;116.10;49.97;;;;;;;-6.55;100.00;99803.75;5026838;28;20457;-72
2021/12/28 00:28:50;;;;;;;113.97;48.03;;;;;;;-6.54;100.00;99802.94;5023958;28;20488;-71
2021/12/28 00:31:17;;;;;;;115.63;48.33;;;;;;;-6.53;100.00;99799.56;5026050;28;20473;-71
2021/12/28 00:33:44;;;;;;;117.33;50.00;;;;;;;-6.57;100.00;99798.63;5025358;28;20465;-72
2021/12/28 00:36:13;;;;;;;105.80;46.53;;;;;;;-6.57;100.00;99801.16;5025109;28;20461;-71
2021/12/28 00:38:40;;;;;;;116.67;48.63;;;;;;;-6.58;100.00;99801.09;5019852;28;20478;-71
2021/12/28 00:41:06;;;;;;;113.37;50.27;;;;;;;-6.57;100.00;99803.69;5022657;28;20475;-71
2021/12/28 00:43:34;;;;;;;113.33;47.83;;;;;;;-6.57;100.00;99802.84;5025613;28;20458;-71
2021/12/28 00:46:01;;;;;;;107.17;45.77;;;;;;;-6.58;100.00;99801.97;5027587;28;20453;-71
2021/12/28 00:48:27;;;;;;;111.23;49.20;;;;;;;-6.57;100.00;99810.44;5023685;28;20466;-71
2021/12/28 00:50:54;;;;;;;106.70;48.40;;;;;;;-6.59;100.00;99807.00;5025664;28;20486;-71
2021/12/28 00:53:22;;;;;;;107.63;47.27;;;;;;;-6.61;100.00;99804.44;5023505;28;20462;-71
2021/12/28 00:55:48;;;;;;;117.17;49.80;;;;;;;-6.61;100.00;99808.63;5026585;28;20462;-71
2021/12/28 00:58:15;;;;;;;118.97;50.37;;;;;;;-6.60;100.00;99801.06;5023358;28;20491;-72
2021/12/28 01:00:41;;;;;;;114.27;49.93;;;;;;;-6.60;100.00;99797.66;5024571;28;20840;-72
2021/12/28 01:03:10;;;;;;;109.83;47.33;;;;;;;-6.64;100.00;99793.34;5022537;28;20523;-71
2021/12/28 01:05:37;;;;;;;128.23;50.00;;;;;;;-6.62;100.00;99792.53;5025066;28;20465;-71
2021/12/28 01:08:05;;;;;;;119.37;50.27;;;;;;;-6.63;100.00;99790.84;5021663;28;20462;-72
2021/12/28 01:10:36;;;;;;;110.97;48.40;;;;;;;-6.62;100.00;99796.78;5022629;28;20498;-71
2021/12/28 01:13:03;;;;;;;110.87;48.93;;;;;;;-6.64;100.00;99803.47;5023438;28;20469;-71
2021/12/28 01:15:30;;;;;;;124.13;48.60;;;;;;;-6.63;100.00;99795.03;5027778;28;20466;-71
2021/12/28 01:17:58;;;;;;;113.50;48.03;;;;;;;-6.68;100.00;99798.31;5021298;28;20482;-72
2021/12/28 01:20:25;;;;;;;109.93;47.73;;;;;;;-6.68;100.00;99798.31;5024637;28;20450;-71
2021/12/28 01:22:52;;;;;;;111.03;48.60;;;;;;;-6.68;100.00;99790.69;5019914;28;20461;-71
2021/12/28 01:25:20;;;;;;;120.40;49.07;;;;;;;-6.68;100.00;99800.00;5019533;28;20457;-72
2021/12/28 01:27:48;;;;;;;111.03;49.03;;;;;;;-6.69;100.00;99791.50;5022606;28;20501;-73
2021/12/28 01:30:17;;;;;;;110.50;45.80;;;;;;;-6.71;100.00;99790.59;5025340;28;20466;-74
2021/12/28 01:32:44;;;;;;;108.90;46.77;;;;;;;-6.69;100.00;99783.03;5023850;28;20505;-73
2021/12/28 01:35:14;;;;;;;113.33;49.23;;;;;;;-6.70;100.00;99782.19;5018194;28;20842;-70
2021/12/28 01:37:42;;;;;;;117.23;47.93;;;;;;;-6.70;100.00;99786.38;5025528;28;20474;-73
2021/12/28 01:40:11;;;;;;;107.47;46.93;;;;;;;-6.72;100.00;99778.75;5016787;28;20454;-74
2021/12/28 01:43:01;;;;;;;112.10;45.47;;;;;;;-6.71;100.00;99772.84;5017086;28;20469;-73
2021/12/28 01:45:37;;;;;;;98.27;44.57;;;;;;;-6.74;100.00;99775.28;5022594;28;20531;-74
2021/12/28 01:48:05;;;;;;;112.83;47.40;;;;;;;-6.76;100.00;99766.78;5021672;28;20902;-74
2021/12/28 01:50:32;;;;;;;115.33;47.80;;;;;;;-6.78;100.00;99757.41;5025219;28;20855;-70
2021/12/28 01:52:58;;;;;;;101.03;44.50;;;;;;;-6.79;100.00;99761.59;5019696;28;20473;-74
2021/12/28 01:55:25;;;;;;;110.27;46.93;;;;;;;-6.81;100.00;99752.25;5026910;28;20460;-73
2021/12/28 01:57:52;;;;;;;120.83;47.83;;;;;;;-6.83;100.00;99758.94;5022750;28;20485;-73
2021/12/28 02:00:20;;;;;;;102.27;47.43;;;;;;;-6.84;100.00;99763.16;5028938;28;20457;-74
2021/12/28 02:02:47;;;;;;;111.47;46.37;;;;;;;-6.85;100.00;99757.22;5023322;28;20466;-74
2021/12/28 02:05:13;;;;;;;108.03;45.67;;;;;;;-6.88;100.00;99758.81;5022974;28;20481;-74
2021/12/28 02:07:40;;;;;;;110.20;44.67;;;;;;;-6.88;100.00;99751.19;5021137;28;20454;-73
2021/12/28 02:10:07;;;;;;;114.70;45.53;;;;;;;-6.88;100.00;99752.09;5025157;28;20797;-73
2021/12/28 02:12:33;;;;;;;99.80;45.83;;;;;;;-6.89;100.00;99750.34;5022844;28;20481;-73
2021/12/28 02:15:05;;;;;;;110.50;45.33;;;;;;;-6.87;100.00;99746.19;5025653;28;20461;-71
2021/12/28 02:17:34;;;;;;;109.77;44.60;;;;;;;-6.87;100.00;99748.72;5020446;28;20466;-71
2021/12/28 02:20:07;;;;;;;111.20;45.73;;;;;;;-6.87;100.00;99743.66;5025463;28;20466;-71
2021/12/28 02:22:34;;;;;;;107.07;46.47;;;;;;;-6.88;100.00;99746.13;5023357;28;20466;-72
2021/12/28 02:25:01;;;;;;;107.77;45.40;;;;;;;-6.88;100.00;99739.41;5024003;28;20465;-72
2021/12/28 02:27:29;;;;;;;108.00;43.37;;;;;;;-6.88;100.00;99746.13;5022779;28;20462;-73
2021/12/28 02:29:55;;;;;;;106.70;45.97;;;;;;;-6.88;100.00;99743.59;5022233;28;20446;-73
2021/12/28 02:32:27;;;;;;;108.93;45.80;;;;;;;-6.89;100.00;99741.91;5019936;28;20485;-73
2021/12/28 02:34:53;;;;;;;105.70;44.50;;;;;;;-6.90;100.00;99740.16;5021279;28;20454;-73
2021/12/28 02:37:21;;;;;;;106.63;44.43;;;;;;;-6.92;100.00;99732.50;5023688;28;21148;-73
2021/12/28 02:39:48;;;;;;;101.83;45.70;;;;;;;-6.89;100.00;99741.91;5024725;28;20509;-73
2021/12/28 02:42:16;;;;;;;113.90;46.40;;;;;;;-6.92;100.00;99731.66;5022140;28;20493;-73
2021/12/28 02:44:42;;;;;;;111.77;44.03;;;;;;;-6.91;100.00;99735.88;5025185;28;20465;-73
2021/12/28 02:47:08;;;;;;;100.27;45.00;;;;;;;-6.89;100.00;99731.75;5024209;28;20459;-73
2021/12/28 02:49:37;;;;;;;120.97;47.03;;;;;;;-6.87;100.00;99728.44;5024319;28;20816;-72
2021/12/28 02:52:09;;;;;;;102.37;44.97;;;;;;;-6.87;100.00;99722.50;5025992;28;20477;-73
2021/12/28 02:54:37;;;;;;;112.90;42.17;;;;;;;-6.85;100.00;99724.25;5022627;28;20998;-73
2021/12/28 02:57:04;;;;;;;115.53;43.00;;;;;;;-6.88;100.00;99711.53;5018225;28;20477;-73
2021/12/28 02:59:30;;;;;;;104.07;44.93;;;;;;;-6.87;100.00;99713.22;5024053;28;20485;-72
2021/12/28 03:01:56;;;;;;;111.83;45.57;;;;;;;-6.88;100.00;99708.09;5023052;28;20478;-73
2021/12/28 03:04:26;;;;;;;103.73;44.40;;;;;;;-6.87;100.00;99707.31;5026635;28;20829;-73
2021/12/28 03:06:52;;;;;;;103.20;41.70;;;;;;;-6.87;100.00;99698.00;5018676;28;20451;-73
2021/12/28 03:09:20;;;;;;;102.47;42.67;;;;;;;-6.84;100.00;99707.41;5025153;28;20461;-73
2021/12/28 03:11:48;;;;;;;94.53;41.23;;;;;;;-6.83;100.00;99709.09;5021585;28;20478;-73
2021/12/28 03:14:14;;;;;;;93.07;41.13;;;;;;;-6.81;100.00;99712.53;5026338;28;20455;-73
2021/12/28 03:16:41;;;;;;;106.03;41.33;;;;;;;-6.80;100.00;99709.19;5022284;28;20628;-73
2021/12/28 03:19:07;;;;;;;101.80;43.33;;;;;;;-6.79;100.00;99710.06;5025782;28;20466;-73
2021/12/28 03:21:35;;;;;;;105.23;41.47;;;;;;;-6.78;100.00;99705.03;5025196;28;20478;-73
2021/12/28 03:24:02;;;;;;;109.87;45.70;;;;;;;-6.75;100.00;99700.06;5024941;28;20928;-73
2021/12/28 03:26:29;;;;;;;98.27;41.60;;;;;;;-6.72;100.00;99695.09;5026041;28;20469;-72
2021/12/28 03:28:56;;;;;;;105.93;43.70;;;;;;;-6.64;100.00;99691.91;5025042;28;20449;-73
2021/12/28 03:31:23;;;;;;;97.60;40.93;;;;;;;-6.57;100.00;99688.72;5026402;28;20481;-73
2021/12/28 03:33:52;;;;;;;95.23;42.27;;;;;;;-6.52;100.00;99682.94;5027388;28;20453;-73
2021/12/28 03:36:19;;;;;;;101.17;44.73;;;;;;;-6.47;100.00;99676.31;5024732;28;20967;-73
2021/12/28 03:38:46;;;;;;;92.23;42.03;;;;;;;-6.45;100.00;99668.75;5024989;28;20481;-73
2021/12/28 03:41:15;;;;;;;101.13;42.43;;;;;;;-6.45;100.00;99666.22;5025370;28;20470;-73
2021/12/28 03:43:45;;;;;;;106.10;43.90;;;;;;;-6.47;100.00;99666.19;5024718;28;20458;-73
2021/12/28 03:46:13;;;;;;;97.23;43.07;;;;;;;-6.48;100.00;99663.59;5025729;28;20462;-73
2021/12/28 03:48:41;;;;;;;93.20;43.50;;;;;;;-6.47;100.00;99667.88;5024443;28;20865;-73
2021/12/28 03:51:08;;;;;;;106.83;43.87;;;;;;;-6.49;100.00;99666.94;5025479;28;20494;-73
2021/12/28 03:53:36;;;;;;;104.90;42.53;;;;;;;-6.49;100.00;99664.41;5023998;28;20442;-73
2021/12/28 03:56:04;;;;;;;97.07;41.23;;;;;;;-6.48;100.00;99671.22;5025022;28;20458;-73
2021/12/28 03:58:30;;;;;;;92.43;41.40;;;;;;;-6.47;100.00;99668.72;5025761;28;20470;-73
2021/12/28 04:00:57;;;;;;;101.47;41.57;;;;;;;-6.40;100.00;99669.75;5024063;28;21399;-73
2021/12/28 04:03:25;;;;;;;95.10;40.73;;;;;;;-6.37;100.00;99666.41;5025057;28;20475;-73
2021/12/28 04:05:51;;;;;;;90.97;39.70;;;;;;;-6.34;100.00;99656.34;5023115;28;20465;-73
2021/12/28 04:08:22;;;;;;;92.27;39.63;;;;;;;-6.31;100.00;99657.28;5026206;28;20971;-73
2021/12/28 04:10:54;;;;;;;104.47;43.73;;;;;;;-6.26;100.00;99647.28;5024745;28;20624;-73
2021/12/28 04:13:22;;;;;;;96.30;41.10;;;;;;;-6.21;100.00;99653.31;5023548;28;20450;-73
2021/12/28 04:15:49;;;;;;;101.40;42.73;;;;;;;-6.16;100.00;99661.03;5023571;28;20478;-73
2021/12/28 04:18:17;;;;;;;105.13;41.10;;;;;;;-6.11;100.00;99673.03;5025652;28;20974;-73
2021/12/28 04:20:45;;;;;;;93.73;38.13;;;;;;;-6.04;100.00;99673.19;5024125;28;20504;-73
2021/12/28 04:23:12;;;;;;;106.63;42.63;;;;;;;-6.00;100.00;99659.75;5020083;28;20498;-73
2021/12/28 04:25:38;;;;;;;99.80;40.40;;;;;;;-5.97;100.00;99655.63;5023789;28;20461;-73
2021/12/28 04:28:05;;;;;;;89.63;40.73;;;;;;;-5.93;100.00;99649.78;5024317;28;20459;-73
2021/12/28 04:30:31;;;;;;;94.97;41.93;;;;;;;-5.88;100.00;99641.41;5018994;28;20486;-73
2021/12/28 04:32:58;;;;;;;97.67;41.53;;;;;;;-5.83;100.00;99637.31;5022992;28;20450;-73
2021/12/28 04:35:24;;;;;;;94.83;40.33;;;;;;;-5.79;100.00;99636.53;5023527;28;20470;-73
2021/12/28 04:37:52;;;;;;;99.53;43.13;;;;;;;-5.78;100.00;99634.03;5022368;28;20463;-73
2021/12/28 04:40:19;;;;;;;94.03;39.63;;;;;;;-5.76;100.00;99629.00;5030839;28;20471;-73
2021/12/28 04:42:45;;;;;;;86.33;38.87;;;;;;;-5.74;100.00;99622.28;5022227;28;20461;-73
2021/12/28 04:45:14;;;;;;;89.53;39.50;;;;;;;-5.74;100.00;99607.88;5024261;28;20471;-73
2021/12/28 04:47:41;;;;;;;86.23;38.93;;;;;;;-5.68;100.00;99608.84;5022836;28;20454;-73
2021/12/28 04:50:09;;;;;;;89.07;37.03;;;;;;;-5.66;100.00;99605.53;5026536;28;20474;-73
2021/12/28 04:52:38;;;;;;;89.03;39.33;;;;;;;-5.66;100.00;99597.94;5018357;28;21014;-73
2021/12/28 04:55:10;;;;;;;83.80;37.00;;;;;;;-5.64;100.00;99600.50;5019026;28;20478;-73
2021/12/28 04:57:37;;;;;;;86.73;37.30;;;;;;;-5.65;100.00;99592.00;5022304;28;20462;-73
2021/12/28 05:00:05;;;;;;;86.00;38.43;;;;;;;-5.60;100.00;99592.13;5018816;28;20480;-73
2021/12/28 05:02:31;;;;;;;89.37;37.70;;;;;;;-5.60;100.00;99585.34;5023965;28;20468;-73
2021/12/28 05:04:58;;;;;;;87.47;37.20;;;;;;;-5.54;100.00;99588.03;5025326;28;20473;-73
2021/12/28 05:07:24;;;;;;;83.77;36.60;;;;;;;-5.53;100.00;99596.50;5022810;28;20468;-73
2021/12/28 05:09:57;;;;;;;85.80;36.90;;;;;;;-5.52;100.00;99588.94;5024796;28;20817;-73
2021/12/28 05:12:25;;;;;;;81.53;35.97;;;;;;;-5.47;100.00;99580.53;5021104;28;20485;-73
2021/12/28 05:14:51;;;;;;;90.13;37.53;;;;;;;-5.43;100.00;99580.66;5024993;28;20467;-73
2021/12/28 05:17:18;;;;;;;88.60;36.87;;;;;;;-5.40;100.00;99585.81;5017096;28;20495;-73
2021/12/28 05:19:44;;;;;;;86.50;37.53;;;;;;;-5.37;100.00;99585.00;5021439;28;20487;-73
2021/12/28 05:22:12;;;;;;;88.97;36.40;;;;;;;-5.33;100.00;99581.69;5021777;28;20480;-73
2021/12/28 05:24:39;;;;;;;83.50;35.97;;;;;;;-5.29;100.00;99580.94;5015999;28;20563;-73
2021/12/28 05:27:06;;;;;;;76.30;34.50;;;;;;;-5.28;100.00;99577.56;5019850;28;20476;-73
2021/12/28 05:29:34;;;;;;;81.77;36.63;;;;;;;-5.25;100.00;99581.88;5025719;28;20925;-73
2021/12/28 05:32:00;;;;;;;80.73;36.70;;;;;;;-5.22;100.00;99581.94;5021782;28;20496;-72
2021/12/28 05:34:27;;;;;;;83.00;36.37;;;;;;;-5.19;100.00;99577.78;5019966;28;20471;-73
2021/12/28 05:36:53;;;;;;;80.03;35.10;;;;;;;-5.16;100.00;99574.44;5019300;28;20475;-72
2021/12/28 05:39:20;;;;;;;80.83;34.77;;;;;;;-5.12;100.00;99571.09;5028642;28;20937;-73
2021/12/28 05:41:46;;;;;;;73.97;34.10;;;;;;;-5.08;100.00;99566.94;5020633;28;20489;-73
2021/12/28 05:44:13;;;;;;;85.37;35.27;;;;;;;-5.05;100.00;99561.94;5019149;28;20463;-73
2021/12/28 05:46:40;;;;;;;81.17;33.73;;;;;;;-5.03;100.00;99557.72;5021401;28;20472;-73
2021/12/28 05:49:07;;;;;;;79.97;35.43;;;;;;;-5.00;100.00;99560.34;5022200;28;20447;-74
2021/12/28 05:51:34;;;;;;;76.33;34.00;;;;;;;-4.97;100.00;99565.50;5020993;28;20495;-73
2021/12/28 05:54:00;;;;;;;83.77;33.70;;;;;;;-4.95;100.00;99563.84;5019440;28;20468;-73
2021/12/28 05:56:27;;;;;;;79.70;34.63;;;;;;;-4.91;100.00;99572.38;5021219;28;20467;-73
2021/12/28 05:58:53;;;;;;;83.23;33.80;;;;;;;-4.86;100.00;99574.16;5022775;28;20841;-73
2021/12/28 06:01:20;;;;;;;71.90;32.87;;;;;;;-4.82;100.00;99575.97;5021535;28;20498;-73
2021/12/28 06:03:47;;;;;;;75.10;33.47;;;;;;;-4.78;100.00;99575.19;5022281;28;20451;-74
2021/12/28 06:06:14;;;;;;;74.80;33.57;;;;;;;-4.74;100.00;99560.00;5021584;28;21012;-73
2021/12/28 06:08:40;;;;;;;70.87;32.03;;;;;;;-4.74;100.00;99554.91;5024283;28;21302;-73
2021/12/28 06:11:12;;;;;;;76.30;32.47;;;;;;;-4.72;100.00;99548.16;5020683;28;20490;-73
2021/12/28 06:13:40;;;;;;;75.97;33.27;;;;;;;-4.70;100.00;99554.13;5023061;28;20460;-73
2021/12/28 06:16:06;;;;;;;73.30;32.13;;;;;;;-4.70;100.00;99552.44;5020687;28;20459;-73
2021/12/28 06:18:33;;;;;;;81.90;34.03;;;;;;;-4.67;100.00;99556.72;5024637;28;20823;-73
2021/12/28 06:21:01;;;;;;;71.63;32.73;;;;;;;-4.67;100.00;99547.41;5020985;28;20496;-73
2021/12/28 06:23:27;;;;;;;80.07;33.27;;;;;;;-4.65;100.00;99548.28;5023603;28;20531;-73
2021/12/28 06:25:54;;;;;;;75.70;32.40;;;;;;;-4.62;100.00;99548.34;5021188;28;20473;-73
2021/12/28 06:28:20;;;;;;;73.00;30.27;;;;;;;-4.62;100.00;99552.59;5025124;28;20849;-73
2021/12/28 06:30:47;;;;;;;76.33;32.07;;;;;;;-4.60;100.00;99549.22;5021918;28;20484;-74
2021/12/28 06:33:15;;;;;;;76.87;33.53;;;;;;;-4.58;100.00;99564.53;5025014;28;20824;-73
2021/12/28 06:35:41;;;;;;;80.10;32.47;;;;;;;-4.57;100.00;99561.16;5018500;28;20468;-73
2021/12/28 06:38:09;;;;;;;68.73;31.03;;;;;;;-4.56;100.00;99560.31;5019654;28;20469;-73
2021/12/28 06:40:35;;;;;;;73.37;30.80;;;;;;;-4.54;100.00;99561.19;5019318;28;20493;-73
2021/12/28 06:43:02;;;;;;;68.10;30.90;;;;;;;-4.51;100.00;99565.50;5023588;28;20471;-73
2021/12/28 06:45:28;;;;;;;67.97;31.90;;;;;;;-4.51;100.00;99557.84;5022213;28;21295;-73
2021/12/28 06:47:55;;;;;;;73.37;32.00;;;;;;;-4.48;100.00;99557.91;5022468;28;20469;-73
2021/12/28 06:50:22;;;;;;;67.90;30.57;;;;;;;-4.47;100.00;99551.97;5026351;28;20479;-73
2021/12/28 06:52:48;;;;;;;77.17;32.60;;;;;;;-4.47;100.00;99555.38;5024323;28;20461;-71
2021/12/28 06:55:16;;;;;;;73.30;30.67;;;;;;;-4.45;100.00;99561.38;5025051;28;20456;-73
2021/12/28 06:57:42;;;;;;;72.23;31.70;;;;;;;-4.43;100.00;99557.16;5026202;28;20985;-70
2021/12/28 07:00:12;;;;;;;66.83;31.13;;;;;;;-4.40;100.00;99552.13;5025795;28;20990;-73
2021/12/28 07:02:38;;;;;;;65.87;30.40;;;;;;;-4.39;100.00;99551.28;5018557;28;20465;-73
2021/12/28 07:05:07;;;;;;;74.67;32.13;;;;;;;-4.34;100.00;99550.50;5024094;28;20603;-70
2021/12/28 07:07:33;;;;;;;69.40;30.83;;;;;;;-4.33;100.00;99550.53;5023069;28;20827;-73
2021/12/28 07:10:00;;;;;;;73.80;31.40;;;;;;;-4.34;100.00;99543.75;5022302;28;20492;-73
2021/12/28 07:12:28;;;;;;;71.97;31.37;;;;;;;-4.34;100.00;99548.84;5019704;28;20488;-73
2021/12/28 07:14:54;;;;;;;66.20;29.63;;;;;;;-4.33;100.00;99547.97;5022314;28;20480;-73
2021/12/28 07:17:20;;;;;;;64.87;30.53;;;;;;;-4.32;100.00;99551.41;5023492;28;20531;-74
2021/12/28 07:19:47;;;;;;;65.43;31.20;;;;;;;-4.33;100.00;99547.97;5023766;28;20485;-71
2021/12/28 07:22:14;;;;;;;66.67;30.27;;;;;;;-4.35;100.00;99547.09;4994404;28;21136;-71
2021/12/28 07:24:40;;;;;;;74.20;30.83;;;;;;;-4.35;100.00;99547.09;5000248;28;20489;-71
2021/12/28 07:27:06;;;;;;;66.67;30.43;;;;;;;-4.30;100.00;99544.66;5007445;28;20460;-71
2021/12/28 07:29:34;;;;;;;73.33;31.73;;;;;;;-4.30;100.00;99544.66;5007694;28;20473;-71
2021/12/28 07:32:02;;;;;;;72.67;31.27;;;;;;;-4.28;100.00;99546.38;5006532;28;20842;-71
2021/12/28 07:34:29;;;;;;;71.90;30.63;;;;;;;-4.25;100.00;99548.97;5007457;28;20530;-71
2021/12/28 07:36:55;;;;;;;75.27;30.07;;;;;;;-4.21;100.00;99542.25;5007554;28;20910;-71
2021/12/28 07:39:21;;;;;;;66.57;30.43;;;;;;;-4.18;100.00;99542.31;5005164;28;20474;-70
2021/12/28 07:41:48;;;;;;;71.00;30.40;;;;;;;-4.13;100.00;99537.25;5005804;28;20470;-72
2021/12/28 07:44:14;;;;;;;65.53;29.87;;;;;;;-4.11;100.00;99528.84;5006816;28;20470;-71
2021/12/28 07:46:42;;;;;;;72.70;29.77;;;;;;;-4.07;100.00;99528.03;5003582;28;20476;-71
2021/12/28 07:49:09;;;;;;;71.80;29.33;;;;;;;-4.02;100.00;99521.31;5007211;28;20469;-71
2021/12/28 07:51:35;;;;;;;67.10;29.70;;;;;;;-3.98;100.00;99514.59;5004667;28;20483;-71
2021/12/28 07:54:02;;;;;;;78.67;30.00;;;;;;;-3.93;100.00;99504.47;5002129;28;20490;-71
2021/12/28 07:56:29;;;;;;;64.73;29.43;;;;;;;-3.90;100.00;99507.09;5004143;28;20540;-71
2021/12/28 07:58:56;;;;;;;69.20;30.20;;;;;;;-3.86;100.00;99493.53;5006867;28;20461;-71
2021/12/28 08:01:22;;;;;;;65.90;29.17;;;;;;;-3.82;100.00;99493.63;5002727;28;20531;-71
2021/12/28 08:03:50;;;;;;;64.47;29.93;;;;;;;-3.78;100.00;99489.41;5009026;28;20458;-71
2021/12/28 08:06:16;;;;;;;62.37;28.10;;;;;;;-3.74;100.00;99486.06;5006291;28;20462;-71
2021/12/28 08:08:43;;;;;;;71.03;30.17;;;;;;;-3.70;100.00;99484.41;5003074;28;20479;-72
2021/12/28 08:11:10;;;;;;;64.50;28.37;;;;;;;-3.67;100.00;99484.47;5001826;28;20474;-72
2021/12/28 08:13:36;;;;;;;59.80;28.23;;;;;;;-3.65;100.00;99472.59;5006164;28;20474;-72
2021/12/28 08:16:02;;;;;;;63.73;28.87;;;;;;;-3.59;100.00;99485.41;5003164;28;21174;-72
2021/12/28 08:18:29;;;;;;;69.33;28.37;;;;;;;-3.55;100.00;99476.97;5001499;28;20467;-71
2021/12/28 08:20:56;;;;;;;65.13;27.50;;;;;;;-3.50;100.00;99480.44;5000314;28;20494;-72
2021/12/28 08:23:23;;;;;;;65.93;28.07;;;;;;;-3.44;100.00;99479.66;5007269;28;20463;-72
2021/12/28 08:25:50;;;;;;;55.07;26.47;;;;;;;-3.40;100.00;99478.00;5003350;28;20827;-71
2021/12/28 08:28:16;;;;;;;67.10;28.47;;;;;;;-3.34;100.00;99467.84;5003945;28;20492;-72
2021/12/28 08:30:43;;;;;;;61.57;27.03;;;;;;;-3.31;100.00;99463.66;5000897;28;20485;-72
2021/12/28 08:33:10;;;;;;;54.17;26.17;;;;;;;-3.27;100.00;99457.78;5000250;28;21143;-72
2021/12/28 08:35:39;;;;;;;53.47;24.97;;;;;;;-3.22;100.00;99465.44;5003834;28;20462;-72
2021/12/28 08:38:07;;;;;;;56.87;26.77;;;;;;;-3.14;100.00;99463.00;5005560;28;20901;-71
2021/12/28 08:40:34;;;;;;;57.10;26.27;;;;;;;-3.11;100.00;99461.34;5002064;28;21015;-71
2021/12/28 08:43:01;;;;;;;62.13;27.57;;;;;;;-3.08;100.00;99457.94;5006219;28;20834;-71
2021/12/28 08:45:27;;;;;;;61.23;26.47;;;;;;;-3.01;100.00;99463.97;5001676;28;20208;-72
2021/12/28 08:47:54;;;;;;;61.10;26.90;;;;;;;-2.97;100.00;99461.47;5005243;28;20466;-71
2021/12/28 08:50:21;;;;;;;55.63;27.30;;;;;;;-2.94;100.00;99453.84;4999202;28;20473;-72
2021/12/28 08:52:48;;;;;;;58.27;26.63;;;;;;;-2.92;100.00;99452.19;5005702;28;20507;-72
2021/12/28 08:55:18;;;;;;;62.37;27.73;;;;;;;-2.87;100.00;99452.22;5000402;28;20200;-72
2021/12/28 08:57:45;;;;;;;67.87;28.50;;;;;;;-2.82;100.00;99448.00;5006313;28;20192;-71
2021/12/28 09:00:14;;;;;;;61.63;25.97;;;;;;;-2.78;100.00;99443.78;5003495;28;20209;-71
2021/12/28 09:02:41;;;;;;;59.57;26.87;;;;;;;-2.74;100.00;99441.28;5004925;28;20272;-71
2021/12/28 09:05:08;;;;;;;55.67;26.50;;;;;;;-2.71;100.00;99441.31;5003468;28;20223;-72
2021/12/28 09:07:35;;;;;;;57.33;26.67;;;;;;;-2.66;100.00;99441.34;5006254;28;20674;-71
2021/12/28 09:10:01;;;;;;;53.30;25.33;;;;;;;-2.61;100.00;99438.84;5001611;28;20215;-72
2021/12/28 09:12:29;;;;;;;53.90;26.37;;;;;;;-2.58;100.00;99438.88;5010312;28;20285;-72
2021/12/28 09:14:56;;;;;;;54.37;26.43;;;;;;;-2.51;100.00;99441.47;5002484;28;20208;-71
2021/12/28 09:17:22;;;;;;;56.90;26.93;;;;;;;-2.46;100.00;99433.88;5001638;28;20219;-72
2021/12/28 09:19:48;;;;;;;56.10;26.03;;;;;;;-2.40;100.00;99433.03;4999835;28;20212;-72
2021/12/28 09:22:15;;;;;;;55.13;26.27;;;;;;;-2.33;100.00;99440.75;5003332;28;20251;-72
2021/12/28 09:24:41;;;;;;;55.40;26.50;;;;;;;-2.26;100.00;99435.69;4999990;28;20213;-72
2021/12/28 09:27:08;;;;;;;56.03;26.80;;;;;;;-2.20;100.00;99431.50;5004320;28;20200;-71
2021/12/28 09:29:37;;;;;;;55.43;24.60;;;;;;;-2.13;100.00;99432.38;4996182;28;20216;-72
2021/12/28 09:32:04;;;;;;;56.10;26.07;;;;;;;-2.05;100.00;99432.44;4998500;28;20606;-72
2021/12/28 09:34:31;;;;;;;52.77;25.50;;;;;;;-1.99;100.00;99428.19;4995722;28;20641;-72
2021/12/28 09:36:58;;;;;;;60.17;26.63;;;;;;;-1.93;100.00;99422.28;5004636;28;20559;-71
2021/12/28 09:39:26;;;;;;;52.10;25.77;;;;;;;-1.84;100.00;99427.44;4998198;28;20212;-72
2021/12/28 09:41:55;;;;;;;60.23;26.70;;;;;;;-1.75;100.00;99431.72;5004983;28;20225;-72
2021/12/28 09:44:22;;;;;;;53.93;24.87;;;;;;;-1.69;100.00;99421.53;5002421;28;20867;-72
2021/12/28 09:46:50;;;;;;;56.10;26.07;;;;;;;-1.61;100.00;99424.13;5004440;28;20670;-72
2021/12/28 09:49:16;;;;;;;47.10;23.07;;;;;;;-1.51;100.00;99423.31;5002629;28;20662;-72
2021/12/28 09:51:43;;;;;;;48.20;22.20;;;;;;;-1.40;100.00;99420.78;5003795;28;20217;-72
2021/12/28 09:54:09;;;;;;;47.13;22.03;;;;;;;-1.31;100.00;99409.75;5001473;28;20217;-72
2021/12/28 09:56:36;;;;;;;40.60;21.03;;;;;;;-1.20;100.00;99411.44;5005898;28;20207;-72
2021/12/28 09:59:03;;;;;;;33.37;16.47;;;;;;;-1.07;100.00;99414.03;5001237;28;20212;-72
2021/12/28 10:01:30;;;;;;;31.53;15.73;;;;;;;-0.99;100.00;99413.19;5002799;28;20224;-72
2021/12/28 10:03:59;;;;;;;30.37;15.53;;;;;;;-0.90;100.00;99419.19;5004502;28;20220;-73
2021/12/28 10:06:28;;;;;;;26.37;14.90;;;;;;;-0.82;100.00;99410.66;4997965;28;20283;-71
2021/12/28 10:09:05;;;;;;;26.20;14.97;;;;;;;-0.73;100.00;99399.56;4999145;28;20547;-72
2021/12/28 10:11:32;;;;;;;30.17;15.57;;;;;;;-0.66;100.00;99403.00;5004432;28;20341;-72
2021/12/28 10:14:11;;;;;;;27.70;14.37;;;;;;;-0.61;100.00;99397.00;5001724;28;20216;-72
2021/12/28 10:16:47;;;;;;;24.63;13.30;;;;;;;-0.51;100.00;99394.44;5004044;28;20204;-72
2021/12/28 10:19:35;;;;;;;21.80;12.10;;;;;;;-0.41;100.00;99396.16;4999454;28;20209;-72
2021/12/28 10:22:30;;;;;;;20.77;11.73;;;;;;;-0.32;100.00;99397.84;5007760;28;20230;-71
2021/12/28 10:24:59;;;;;;;21.20;10.37;;;;;;;-0.26;100.00;99385.88;5005581;28;20299;-72
2021/12/28 10:27:28;;;;;;;19.13;10.83;;;;;;;-0.18;100.00;99390.97;5008308;28;20204;-71
2021/12/28 10:29:56;;;;;;;22.10;10.93;;;;;;;-0.12;100.00;99384.97;5004465;28;20211;-72
2021/12/28 10:32:26;;;;;;;20.20;11.10;;;;;;;-0.07;100.00;99381.56;5008212;28;20216;-72
2021/12/28 10:34:55;;;;;;;22.07;11.43;;;;;;;0.00;100.00;99390.09;5003533;28;20204;-72
2021/12/28 10:37:25;;;;;;;16.60;10.77;;;;;;;0.05;100.00;99387.50;5005004;28;20607;-72
2021/12/28 10:39:54;;;;;;;18.80;10.93;;;;;;;0.10;100.00;99389.19;5004714;28;20204;-72
2021/12/28 10:42:43;;;;;;;16.53;10.07;;;;;;;0.16;100.00;99396.88;5009314;28;20224;-72
2021/12/28 10:45:12;;;;;;;17.77;10.20;;;;;;;0.22;100.00;99390.88;5003705;28;20209;-71
2021/12/28 10:47:38;;;;;;;20.53;11.47;;;;;;;0.25;100.00;99390.03;5008057;28;20582;-72
2021/12/28 10:50:21;;;;;;;18.47;10.03;;;;;;;0.32;100.00;99391.69;5004605;28;20220;-72
2021/12/28 10:52:51;;;;;;;15.67;9.90;;;;;;;0.40;100.00;99386.53;5003248;28;20204;-72
2021/12/28 10:55:22;;;;;;;19.73;10.80;;;;;;;0.44;100.00;99389.06;5003119;28;20285;-71
2021/12/28 10:57:49;;;;;;;19.77;10.60;;;;;;;0.50;100.00;99383.91;5005577;28;20239;-72
2021/12/28 11:00:28;;;;;;;16.77;10.17;;;;;;;0.60;100.00;99368.47;5004202;28;20203;-72
2021/12/28 11:03:23;;;;;;;20.33;10.60;;;;;;;0.72;100.00;99368.38;5003610;28;20192;-72
2021/12/28 11:05:52;;;;;;;19.30;10.93;;;;;;;0.85;100.00;99364.03;5005309;28;20204;-72
2021/12/28 11:08:20;;;;;;;19.07;10.73;;;;;;;0.94;100.00;99362.25;5005602;28;20204;-72
2021/12/28 11:10:49;;;;;;;19.10;8.97;;;;;;;1.03;100.00;99345.09;5005886;28;20221;-72